createdAt,value
2022-10-06T00:02:28.372Z,101029.66
2022-10-06T00:07:33.925Z,101036.63
2022-10-06T00:12:48.614Z,101042.28
2022-10-06T00:17:54.136Z,101040.34
2022-10-06T00:22:59.583Z,101041.20
2022-10-06T00:28:05.168Z,101039.25
2022-10-06T00:33:16.482Z,101042.44
2022-10-06T00:38:23.618Z,101043.94
2022-10-06T00:43:41.031Z,101041.34
2022-10-06T00:48:51.125Z,101060.83
2022-10-06T00:53:58.121Z,101055.55
2022-10-06T00:59:03.782Z,101053.60
2022-10-06T01:04:12.195Z,101072.11
2022-10-06T01:09:19.658Z,101076.04
2022-10-06T01:14:26.350Z,101089.20
2022-10-06T01:19:37.717Z,101078.29
2022-10-06T01:24:45.005Z,101095.61
2022-10-06T01:29:55.865Z,101090.14
2022-10-06T01:35:01.844Z,101100.34
2022-10-06T01:40:09.012Z,101096.81
2022-10-06T01:45:14.796Z,101096.47
2022-10-06T01:50:20.308Z,101096.28
2022-10-06T01:55:26.887Z,101092.34
2022-10-06T02:00:34.094Z,101086.53
2022-10-06T02:05:41.376Z,101089.84
2022-10-06T02:10:46.903Z,101097.64
2022-10-06T02:15:59.076Z,101096.44
2022-10-06T02:21:05.875Z,101095.69
2022-10-06T02:26:12.160Z,101097.64
2022-10-06T02:31:18.558Z,101116.48
2022-10-06T02:36:24.800Z,101112.21
2022-10-06T02:41:31.092Z,101117.50
2022-10-06T02:46:37.426Z,101128.66
2022-10-06T02:51:43.938Z,101129.80
2022-10-06T02:56:50.332Z,101121.70
2022-10-06T03:01:55.959Z,101127.95
2022-10-06T03:07:01.672Z,101147.34
2022-10-06T03:12:08.889Z,101144.52
2022-10-06T03:17:16.170Z,101140.22
2022-10-06T03:22:23.397Z,101151.98
2022-10-06T03:27:30.604Z,101161.69
2022-10-06T03:32:38.239Z,101170.65
2022-10-06T03:37:45.371Z,101185.23
2022-10-06T03:42:51.872Z,101188.58
2022-10-06T03:47:58.360Z,101192.97
2022-10-06T03:53:04.487Z,101203.05
2022-10-06T03:58:10.201Z,101229.91
2022-10-06T04:03:19.076Z,101248.03
2022-10-06T04:08:26.376Z,101254.45
2022-10-06T04:13:32.761Z,101252.61
2022-10-06T04:18:39.654Z,101239.27
2022-10-06T04:23:45.567Z,101251.80
2022-10-06T04:28:51.671Z,101271.94
2022-10-06T04:34:00.364Z,101284.84
2022-10-06T04:39:11.519Z,101296.88
2022-10-06T04:44:18.739Z,101305.63
2022-10-06T04:49:25.327Z,101323.20
2022-10-06T04:54:33.915Z,101331.08
2022-10-06T05:00:05.307Z,101341.29
2022-10-06T05:05:09.624Z,101355.28
2022-10-06T05:10:15.516Z,101371.55
2022-10-06T05:15:21.910Z,101375.23
2022-10-06T05:20:27.733Z,101378.08
2022-10-06T05:25:33.598Z,101397.20
2022-10-06T05:30:41.484Z,101418.80
2022-10-06T05:35:58.670Z,101428.83
2022-10-06T05:41:10.403Z,101446.63
2022-10-06T05:46:21.064Z,101459.23
2022-10-06T05:51:31.270Z,101484.44
2022-10-06T05:56:39.860Z,101502.52
2022-10-06T06:01:45.967Z,101504.86
2022-10-06T06:06:59.142Z,101521.05
2022-10-06T06:12:05.838Z,101527.42
2022-10-06T06:17:12.920Z,101541.55
2022-10-06T06:22:18.441Z,101548.98
2022-10-06T06:27:26.352Z,101569.01
2022-10-06T06:32:32.088Z,101581.28
2022-10-06T06:37:38.099Z,101582.44
2022-10-06T06:42:43.665Z,101597.41
2022-10-06T06:47:59.948Z,101597.98
2022-10-06T06:53:05.605Z,101612.83
2022-10-06T06:58:12.759Z,101632.78
2022-10-06T07:03:38.773Z,101643.58
2022-10-06T07:08:31.095Z,101653.94
2022-10-06T07:13:38.346Z,101661.05
2022-10-06T07:19:03.184Z,101676.23
2022-10-06T07:24:28.925Z,101689.05
2022-10-06T07:29:34.766Z,101694.56
2022-10-06T07:39:49.255Z,101710.06
2022-10-06T07:45:13.191Z,101721.08
2022-10-06T07:50:19.110Z,101728.80
2022-10-06T07:55:25.155Z,101728.60
2022-10-06T08:00:43.255Z,101757.33
2022-10-06T08:05:51.298Z,101758.44
2022-10-06T08:11:01.648Z,101765.95
2022-10-06T08:16:18.200Z,101791.23
2022-10-06T08:21:29.732Z,101789.48
2022-10-06T08:26:36.165Z,101815.74
2022-10-06T08:31:41.703Z,101820.08
2022-10-06T08:37:02.388Z,101823.94
2022-10-06T08:41:56.002Z,101829.53
2022-10-06T08:47:07.871Z,101834.45
2022-10-06T08:52:32.620Z,101867.91
2022-10-06T08:57:47.279Z,101866.34
2022-10-06T09:02:53.569Z,101851.66
2022-10-06T09:08:32.171Z,101886.61
2022-10-06T09:13:40.687Z,101877.36
2022-10-06T09:19:09.137Z,101889.91
2022-10-06T09:24:03.897Z,101895.20
2022-10-06T09:29:09.621Z,101906.97
2022-10-06T09:34:23.751Z,101912.70
2022-10-06T09:39:35.906Z,101906.39
2022-10-06T09:44:56.402Z,101915.52
2022-10-06T09:50:15.633Z,101922.33
2022-10-06T09:55:23.038Z,101932.95
2022-10-06T10:00:31.637Z,101939.36
2022-10-06T10:05:40.836Z,101950.00
2022-10-06T10:10:46.365Z,101955.31
2022-10-06T10:15:58.503Z,101964.88
2022-10-06T10:21:08.689Z,101977.31
2022-10-06T10:26:44.991Z,101985.00
2022-10-06T10:32:17.121Z,101997.92
2022-10-06T10:37:26.455Z,101992.43
2022-10-06T10:42:35.382Z,102003.90
2022-10-06T10:47:45.868Z,101990.66
2022-10-06T10:52:53.443Z,102011.86
2022-10-06T10:58:20.000Z,102023.88
2022-10-06T11:03:25.831Z,102016.80
2022-10-06T11:08:43.091Z,102028.98
2022-10-06T11:13:52.724Z,102034.20
2022-10-06T11:19:16.324Z,102040.41
2022-10-06T11:24:41.230Z,102051.63
2022-10-06T11:29:59.123Z,102050.27
2022-10-06T11:35:06.790Z,102073.47
2022-10-06T11:40:31.131Z,102069.31
2022-10-06T11:45:51.535Z,102074.84
2022-10-06T11:50:59.233Z,102074.73
2022-10-06T11:56:20.055Z,102074.52
2022-10-06T12:01:39.383Z,102088.52
2022-10-06T12:06:48.095Z,102084.23
2022-10-06T12:11:55.488Z,102093.03
2022-10-06T12:17:12.842Z,102108.78
2022-10-06T12:22:20.125Z,102094.20
2022-10-06T12:27:37.469Z,102098.17
2022-10-06T12:32:49.622Z,102102.03
2022-10-06T12:37:58.151Z,102097.41
2022-10-06T12:43:21.064Z,102110.58
2022-10-06T12:48:32.731Z,102117.75
2022-10-06T12:53:50.060Z,102121.05
2022-10-06T12:58:56.586Z,102130.50
2022-10-06T13:04:02.041Z,102143.02
2022-10-06T13:09:16.476Z,102130.75
2022-10-06T13:14:21.994Z,102133.59
2022-10-06T13:19:30.051Z,102132.59
2022-10-06T13:24:35.648Z,102144.48
2022-10-06T13:29:41.250Z,102141.41
2022-10-06T13:34:47.202Z,102148.72
2022-10-06T13:39:52.657Z,102141.11
2022-10-06T13:45:02.119Z,102145.17
2022-10-06T13:50:10.602Z,102151.15
2022-10-06T13:55:27.723Z,102151.60
2022-10-06T14:00:36.285Z,102161.31
2022-10-06T14:05:44.660Z,102166.81
2022-10-06T14:11:13.836Z,102173.50
2022-10-06T14:16:25.381Z,102162.76
2022-10-06T14:21:45.867Z,102175.39
2022-10-06T14:26:53.671Z,102181.89
2022-10-06T14:32:10.923Z,102177.72
2022-10-06T14:37:16.575Z,102174.59
2022-10-06T14:42:23.680Z,102178.41
2022-10-06T14:47:30.770Z,102177.05
2022-10-06T14:52:37.521Z,102165.39
2022-10-06T14:57:42.977Z,102171.73
2022-10-06T15:02:48.911Z,102173.50
2022-10-06T15:08:12.654Z,102181.41
2022-10-06T15:13:18.700Z,102184.38
2022-10-06T15:18:26.224Z,102183.38
2022-10-06T15:23:31.944Z,102187.61
2022-10-06T15:28:55.429Z,102199.16
2022-10-06T15:34:03.695Z,102205.27
2022-10-06T15:39:16.333Z,102212.34
2022-10-06T15:44:22.331Z,102209.24
2022-10-06T15:49:30.502Z,102215.23
2022-10-06T15:54:38.050Z,102213.97
2022-10-06T15:59:44.150Z,102214.38
2022-10-06T16:04:58.316Z,102216.64
2022-10-06T16:10:03.752Z,102215.22
2022-10-06T16:15:09.856Z,102223.73
2022-10-06T16:20:16.639Z,102231.48
2022-10-06T16:25:22.094Z,102236.83
2022-10-06T16:30:27.923Z,102237.73
2022-10-06T16:35:33.511Z,102256.28
2022-10-06T16:40:38.905Z,102253.97
2022-10-06T16:45:44.257Z,102252.13
2022-10-06T16:50:49.648Z,102260.89
2022-10-06T16:55:56.102Z,102272.14
2022-10-06T17:01:01.590Z,102269.50
2022-10-06T17:06:10.175Z,102281.53
2022-10-06T17:11:20.175Z,102280.97
2022-10-06T17:16:28.821Z,102293.08
2022-10-06T17:21:55.734Z,102294.28
2022-10-06T17:26:44.044Z,102300.50
2022-10-06T17:31:53.528Z,102298.25
2022-10-06T17:36:59.441Z,102292.37
2022-10-06T17:42:05.398Z,102294.14
2022-10-06T17:47:12.690Z,102292.30
2022-10-06T17:52:24.113Z,102294.77
2022-10-06T17:57:29.353Z,102292.67
2022-10-06T18:02:34.877Z,102304.44
2022-10-06T18:07:40.439Z,102305.58
2022-10-06T18:12:47.731Z,102299.63
2022-10-06T18:17:53.478Z,102300.43
2022-10-06T18:22:58.951Z,102301.97
2022-10-06T18:28:04.624Z,102300.65
2022-10-06T18:38:17.279Z,102302.07
2022-10-06T18:43:22.805Z,102306.89
2022-10-06T18:48:46.387Z,102304.59
2022-10-06T18:53:53.850Z,102308.53
2022-10-06T18:59:01.847Z,102309.64
2022-10-06T19:04:09.379Z,102315.14
2022-10-06T19:09:16.976Z,102319.80
2022-10-06T19:14:26.525Z,102312.42
2022-10-06T19:19:32.692Z,102322.55
2022-10-06T19:24:41.652Z,102325.09
2022-10-06T19:29:48.832Z,102336.49
2022-10-06T19:34:56.493Z,102333.69
2022-10-06T19:40:02.059Z,102334.23
2022-10-06T19:45:09.359Z,102335.98
2022-10-06T19:50:17.319Z,102340.58
2022-10-06T19:55:28.822Z,102342.24
2022-10-06T20:00:34.418Z,102342.13
2022-10-06T20:05:39.856Z,102346.31
2022-10-06T20:10:45.308Z,102342.56
2022-10-06T20:15:50.976Z,102347.25
2022-10-06T20:21:00.020Z,102350.69
2022-10-06T20:26:13.974Z,102353.45
2022-10-06T20:31:26.320Z,102355.67
2022-10-06T20:36:33.310Z,102353.78
2022-10-06T20:41:38.982Z,102347.67
2022-10-06T20:46:44.895Z,102355.81
2022-10-06T20:51:52.063Z,102361.52
2022-10-06T20:56:57.678Z,102360.84
2022-10-06T21:02:03.301Z,102365.83
2022-10-06T21:07:08.703Z,102370.11
2022-10-06T21:12:15.755Z,102360.84
2022-10-06T21:17:21.193Z,102363.06
2022-10-06T21:22:27.180Z,102369.27
2022-10-06T21:27:32.670Z,102369.09
2022-10-06T21:32:38.313Z,102369.64
2022-10-06T21:37:44.700Z,102373.91
2022-10-06T21:42:50.426Z,102372.13
2022-10-06T21:47:55.908Z,102360.42
2022-10-06T21:53:01.469Z,102374.07
2022-10-06T21:58:06.937Z,102376.11
2022-10-06T22:03:12.998Z,102366.30
2022-10-06T22:08:18.527Z,102365.02
2022-10-06T22:13:23.934Z,102365.95
2022-10-06T22:18:29.481Z,102361.19
2022-10-06T22:23:34.888Z,102356.34
2022-10-06T22:28:42.342Z,102352.73
2022-10-06T22:33:53.725Z,102355.95
2022-10-06T22:38:59.268Z,102346.67
2022-10-06T22:44:04.885Z,102340.56
2022-10-06T22:49:10.738Z,102344.25
2022-10-06T22:54:22.230Z,102337.66
2022-10-06T22:59:28.208Z,102334.52
2022-10-06T23:04:33.794Z,102338.73
2022-10-06T23:09:40.897Z,102324.89
2022-10-06T23:14:46.380Z,102327.58
2022-10-06T23:19:51.847Z,102325.49
2022-10-06T23:24:57.520Z,102329.34
2022-10-06T23:30:04.029Z,102325.63
2022-10-06T23:35:11.883Z,102326.22
2022-10-06T23:40:17.779Z,102320.25
2022-10-06T23:45:23.307Z,102321.25
2022-10-06T23:50:29.671Z,102330.31
2022-10-06T23:55:35.706Z,102333.65
